Nearby METAR Reports

 

KAVP - Avoca/Wilkes B., Pennsylvania, USA
Distance from station: N 16mi, 25km
Updated: 04/22/2019 11:54am
Overcast
Overcast
 Wind from NNW
Wind: NNW 9 mph , 15 km/h
Temperature: 55°F , 13°C
Dew Point: 45°F , 7°C
Humidity: 67%
Barometer: 30.17 inHg , 1021.7 hPa
Clouds: Overcast
Visibility: 8 miles , 13 km
Cloud details: Mostly cloudy 2300 ft
Mostly cloudy 4400 ft
Overcast 6000 ft
2019/04/22 15:54 KAVP 221554Z 34008KT 8SM BKN023 BKN044 OVC060 13/07 A3017 RMK AO2 SLP215 T01280072
KMPO - Mt. Pocono, Pennsylvania, USA
Distance from station: E 20mi, 33km
Updated: 04/22/2019 11:53am
Overcast
Overcast
 Wind from NW
Wind: NW 23 mph , 37 km/h, Gust: 29 mph , 46 km/h
Temperature: 52°F , 11°C
Dew Point: 45°F , 7°C
Humidity: 77%
Barometer: 30.11 inHg , 1019.6 hPa
Clouds: Overcast
Visibility: 10 miles , 16 km
Cloud details: Mostly cloudy 4900 ft
Overcast 6000 ft
2019/04/22 15:53 KMPO 221553Z AUTO 31020G25KT 10SM BKN049 OVC060 11/07 A3011 RMK AO2 PK WND 32026/1529 SLP198 T01110072
 
KABE - Allentown, Pennsylvania, USA
Distance from station: SSE 36mi, 58km
Updated: 04/22/2019 11:51am

 Wind from NNW
Wind: NNW 15 mph , 24 km/h, Gust: 23 mph , 37 km/h
Temperature: 61°F , 16°C
Dew Point: 48°F , 9°C
Humidity: 63%
Barometer: 30.09 inHg , 1019 hPa
Visibility: 10 miles , 16 km
2019/04/22 15:51 KABE 221551Z 34013G20KT 10SM 16/09 A3009 RMK AO2 SLP190 T01610089 $
KXLL - Allentown Queen, Pennsylvania, USA
Distance from station: SSE 41mi, 65km
Updated: 04/22/2019 11:55am
Overcast
Overcast
 Wind from NW
Wind: NW 9 mph , 15 km/h
Temperature: 61°F , 16°C
Dew Point: 48°F , 9°C
Humidity: 63%
Barometer: 30.11 inHg , 1019.6 hPa
Clouds: Overcast
Visibility: 10 miles , 16 km
Cloud details: Partly cloudy 3200 ft
Mostly cloudy 5000 ft
Overcast 7500 ft
2019/04/22 15:55 KXLL 221555Z AUTO 31008KT 10SM SCT032 BKN050 OVC075 16/09 A3011 RMK AO2